createdAt,value
2023-05-05T00:00:39.698Z,52.39
2023-05-05T00:02:42.971Z,52.27
2023-05-05T00:04:45.995Z,52.56
2023-05-05T00:06:49.914Z,52.89
2023-05-05T00:08:52.447Z,52.71
2023-05-05T00:10:55.992Z,52.82
2023-05-05T00:12:58.590Z,53.01
2023-05-05T00:15:01.140Z,52.86
2023-05-05T00:17:04.166Z,53.38
2023-05-05T00:19:06.891Z,53.50
2023-05-05T00:21:09.467Z,53.50
2023-05-05T00:23:13.546Z,53.76
2023-05-05T00:25:16.341Z,53.24
2023-05-05T00:27:18.901Z,53.77
2023-05-05T00:29:21.563Z,54.09
2023-05-05T00:31:24.240Z,53.93
2023-05-05T00:33:26.910Z,53.90
2023-05-05T00:35:29.469Z,54.40
2023-05-05T00:37:32.063Z,54.16
2023-05-05T00:39:35.959Z,53.84
2023-05-05T00:41:38.552Z,54.31
2023-05-05T00:43:41.123Z,54.25
2023-05-05T00:45:47.525Z,54.24
2023-05-05T00:47:52.175Z,54.55
2023-05-05T00:49:54.831Z,54.78
2023-05-05T00:51:57.576Z,54.81
2023-05-05T00:54:00.400Z,54.73
2023-05-05T00:56:04.738Z,54.71
2023-05-05T00:58:07.897Z,54.77
2023-05-05T01:00:11.900Z,54.78
2023-05-05T01:02:14.490Z,55.21
2023-05-05T01:04:17.191Z,55.57
2023-05-05T01:06:37.225Z,55.84
2023-05-05T01:08:52.201Z,56.10
2023-05-05T01:11:02.269Z,56.47
2023-05-05T01:13:17.778Z,56.62
2023-05-05T01:15:31.433Z,56.62
2023-05-05T01:17:39.682Z,56.68
2023-05-05T01:19:55.416Z,56.55
2023-05-05T01:22:01.340Z,56.61
2023-05-05T01:24:21.612Z,57.00
2023-05-05T01:26:48.898Z,57.47
2023-05-05T01:29:07.357Z,57.96
2023-05-05T01:31:39.490Z,58.26
2023-05-05T01:33:45.008Z,58.37
2023-05-05T01:35:53.277Z,58.65
2023-05-05T01:38:01.467Z,58.47
2023-05-05T01:40:08.155Z,58.34
2023-05-05T01:42:15.018Z,58.51
2023-05-05T01:44:18.775Z,58.71
2023-05-05T01:46:24.693Z,58.42
2023-05-05T01:48:29.856Z,58.64
2023-05-05T01:50:33.051Z,58.96
2023-05-05T01:52:38.523Z,59.32
2023-05-05T01:54:42.884Z,59.07
2023-05-05T01:56:47.205Z,59.28
2023-05-05T01:58:50.796Z,59.23
2023-05-05T02:00:55.352Z,59.39
2023-05-05T02:02:59.787Z,59.40
2023-05-05T02:05:05.560Z,59.21
2023-05-05T02:07:09.871Z,59.40
2023-05-05T02:09:15.077Z,59.34
2023-05-05T02:11:21.519Z,59.02
2023-05-05T02:13:25.743Z,58.78
2023-05-05T02:15:30.046Z,58.92
2023-05-05T02:17:35.816Z,58.65
2023-05-05T02:19:41.012Z,58.48
2023-05-05T02:21:44.967Z,58.42
2023-05-05T02:23:51.645Z,58.45
2023-05-05T02:25:56.799Z,58.55
2023-05-05T02:28:03.454Z,58.39
2023-05-05T02:30:11.149Z,58.40
2023-05-05T02:32:19.333Z,58.50
2023-05-05T02:34:25.918Z,58.34
2023-05-05T02:36:30.689Z,58.22
2023-05-05T02:38:35.183Z,58.85
2023-05-05T02:40:39.231Z,58.88
2023-05-05T02:42:44.116Z,59.72
2023-05-05T02:44:48.407Z,59.86
2023-05-05T02:46:51.936Z,59.99
2023-05-05T02:48:54.563Z,60.03
2023-05-05T02:50:57.195Z,60.04
2023-05-05T02:53:00.243Z,59.99
2023-05-05T02:55:05.345Z,59.76
2023-05-05T02:57:09.710Z,59.80
2023-05-05T02:59:16.831Z,59.87
2023-05-05T03:01:29.112Z,59.86
2023-05-05T03:03:40.936Z,59.66
2023-05-05T03:05:51.561Z,59.54
2023-05-05T03:08:03.112Z,59.75
2023-05-05T03:10:13.120Z,59.67
2023-05-05T03:12:21.165Z,59.38
2023-05-05T03:14:24.371Z,59.52
2023-05-05T03:16:28.981Z,59.94
2023-05-05T03:18:34.259Z,59.71
2023-05-05T03:20:37.699Z,59.88
2023-05-05T03:22:40.259Z,60.11
2023-05-05T03:24:42.839Z,60.26
2023-05-05T03:26:50.737Z,60.20
2023-05-05T03:28:53.334Z,60.41
2023-05-05T03:30:58.353Z,60.63
2023-05-05T03:33:01.060Z,60.76
2023-05-05T03:35:03.658Z,60.94
2023-05-05T03:37:06.302Z,61.07
2023-05-05T03:39:09.088Z,60.95
2023-05-05T03:41:11.648Z,61.07
2023-05-05T03:43:15.583Z,61.09
2023-05-05T03:45:18.322Z,61.11
2023-05-05T03:47:20.865Z,61.17
2023-05-05T03:49:23.436Z,61.12
2023-05-05T03:51:26.234Z,61.09
2023-05-05T03:53:28.786Z,61.11
2023-05-05T03:55:31.400Z,61.33
2023-05-05T03:57:34.296Z,61.24
2023-05-05T03:59:38.220Z,61.30
2023-05-05T04:01:40.852Z,61.49
2023-05-05T04:03:43.577Z,61.69
2023-05-05T04:05:46.230Z,61.73
2023-05-05T04:07:48.784Z,61.58
2023-05-05T04:09:51.739Z,61.79
2023-05-05T04:11:54.300Z,61.94
2023-05-05T04:13:56.860Z,61.82
2023-05-05T04:16:00.859Z,62.05
2023-05-05T04:18:03.600Z,62.31
2023-05-05T04:20:08.376Z,62.19
2023-05-05T04:22:11.411Z,62.25
2023-05-05T04:24:14.450Z,62.14
2023-05-05T04:26:17.017Z,62.33
2023-05-05T04:28:21.818Z,62.35
2023-05-05T04:30:24.800Z,62.36
2023-05-05T04:32:28.736Z,62.41
2023-05-05T04:34:31.306Z,62.39
2023-05-05T04:36:34.511Z,62.55
2023-05-05T04:38:37.130Z,62.88
2023-05-05T04:40:41.043Z,62.83
2023-05-05T04:42:43.610Z,63.13
2023-05-05T04:44:46.199Z,63.31
2023-05-05T04:46:48.838Z,63.03
2023-05-05T04:48:52.765Z,62.98
2023-05-05T04:50:55.392Z,63.22
2023-05-05T04:52:57.932Z,63.25
2023-05-05T04:55:01.125Z,63.19
2023-05-05T04:57:04.014Z,63.04
2023-05-05T04:59:06.767Z,63.20
2023-05-05T05:01:09.350Z,63.02
2023-05-05T05:03:12.109Z,63.30
2023-05-05T05:05:16.612Z,63.52
2023-05-05T05:07:19.262Z,63.37
2023-05-05T05:09:21.851Z,63.19
2023-05-05T05:11:24.489Z,62.44
2023-05-05T05:13:27.132Z,61.49
2023-05-05T05:15:29.723Z,61.24
2023-05-05T05:17:32.296Z,61.44
2023-05-05T05:19:34.879Z,61.91
2023-05-05T05:21:38.769Z,62.51
2023-05-05T05:23:41.365Z,62.57
2023-05-05T05:25:44.124Z,62.37
2023-05-05T05:27:50.163Z,61.95
2023-05-05T05:29:57.994Z,61.75
2023-05-05T05:32:00.602Z,61.97
2023-05-05T05:34:03.224Z,61.90
2023-05-05T05:36:06.663Z,61.59
2023-05-05T05:38:10.546Z,61.69
2023-05-05T05:40:13.913Z,61.97
2023-05-05T05:42:16.512Z,61.91
2023-05-05T05:44:19.098Z,61.82
2023-05-05T05:46:21.782Z,61.27
2023-05-05T05:48:28.349Z,60.45
2023-05-05T05:50:30.948Z,60.36
2023-05-05T05:52:33.559Z,60.45
2023-05-05T05:54:37.510Z,60.31
2023-05-05T05:56:40.087Z,60.09
2023-05-05T05:58:42.664Z,60.07
2023-05-05T06:00:45.216Z,60.31
2023-05-05T06:02:47.922Z,60.43
2023-05-05T06:04:50.630Z,60.68
2023-05-05T06:06:53.190Z,60.68
2023-05-05T06:08:55.735Z,60.70
2023-05-05T06:11:00.499Z,60.48
2023-05-05T06:13:03.171Z,60.83
2023-05-05T06:15:06.726Z,60.45
2023-05-05T06:17:09.738Z,60.32
2023-05-05T06:19:12.329Z,59.14
2023-05-05T06:21:14.980Z,58.81
2023-05-05T06:23:17.591Z,59.15
2023-05-05T06:25:20.196Z,58.85
2023-05-05T06:27:24.091Z,59.25
2023-05-05T06:29:26.940Z,59.94
2023-05-05T06:31:29.628Z,60.32
2023-05-05T06:33:32.223Z,60.64
2023-05-05T06:35:34.852Z,60.58
2023-05-05T06:37:37.417Z,60.58
2023-05-05T06:39:39.964Z,60.77
2023-05-05T06:41:42.519Z,60.69
2023-05-05T06:43:46.919Z,60.98
2023-05-05T06:45:49.480Z,61.42
2023-05-05T06:47:52.453Z,61.67
2023-05-05T06:49:55.092Z,61.73
2023-05-05T06:51:57.740Z,61.71
2023-05-05T06:54:00.303Z,61.56
2023-05-05T06:56:02.854Z,61.28
2023-05-05T06:58:05.459Z,60.88
2023-05-05T07:00:11.432Z,59.04
2023-05-05T07:02:14.055Z,58.93
2023-05-05T07:04:16.633Z,58.66
2023-05-05T07:06:19.296Z,58.50
2023-05-05T07:08:21.861Z,59.21
2023-05-05T07:10:25.238Z,59.28
2023-05-05T07:12:30.938Z,59.59
2023-05-05T07:14:33.525Z,59.52
2023-05-05T07:16:37.557Z,59.76
2023-05-05T07:18:42.314Z,59.59
2023-05-05T07:20:45.131Z,58.68
2023-05-05T07:22:47.694Z,59.28
2023-05-05T07:24:53.121Z,58.68
2023-05-05T07:26:55.846Z,58.23
2023-05-05T07:28:59.026Z,58.44
2023-05-05T07:31:02.056Z,58.94
2023-05-05T07:33:06.082Z,59.21
2023-05-05T07:35:09.240Z,59.75
2023-05-05T07:37:11.778Z,60.39
2023-05-05T07:39:15.328Z,58.69
2023-05-05T07:41:18.473Z,58.66
2023-05-05T07:43:21.056Z,59.00
2023-05-05T07:45:23.629Z,59.12
2023-05-05T07:47:26.301Z,59.66
2023-05-05T07:49:30.203Z,59.74
2023-05-05T07:51:34.634Z,59.93
2023-05-05T07:53:37.927Z,59.65
2023-05-05T07:55:40.563Z,59.05
2023-05-05T07:57:43.153Z,58.91
2023-05-05T07:59:45.701Z,59.04
2023-05-05T08:01:48.312Z,59.62
2023-05-05T08:03:51.296Z,59.89
2023-05-05T08:05:56.425Z,60.23
2023-05-05T08:07:59.083Z,60.30
2023-05-05T08:10:01.672Z,59.98
2023-05-05T08:12:04.573Z,59.98
2023-05-05T08:14:08.559Z,60.64
2023-05-05T08:16:11.199Z,61.08
2023-05-05T08:18:13.842Z,61.45
2023-05-05T08:20:16.871Z,61.85
2023-05-05T08:22:22.245Z,61.59
2023-05-05T08:24:24.914Z,62.27
2023-05-05T08:26:27.514Z,62.70
2023-05-05T08:28:30.874Z,63.42
2023-05-05T08:30:33.792Z,64.36
2023-05-05T08:32:36.480Z,65.09
2023-05-05T08:34:39.031Z,66.00
2023-05-05T08:36:41.606Z,67.05
2023-05-05T08:38:46.310Z,67.68
2023-05-05T08:40:50.087Z,68.22
2023-05-05T08:42:52.660Z,68.94
2023-05-05T08:44:56.040Z,69.45
2023-05-05T08:47:01.623Z,69.66
2023-05-05T08:49:06.965Z,70.46
2023-05-05T08:51:10.663Z,71.05
2023-05-05T08:53:18.501Z,71.50
2023-05-05T08:55:25.381Z,71.77
2023-05-05T08:57:36.184Z,72.28
2023-05-05T08:59:39.636Z,72.06
2023-05-05T09:01:43.021Z,71.85
2023-05-05T09:03:46.364Z,71.09
2023-05-05T09:05:49.516Z,70.65
2023-05-05T09:07:52.183Z,71.39
2023-05-05T09:09:54.801Z,71.51
2023-05-05T09:12:00.101Z,72.11
2023-05-05T09:14:02.763Z,71.91
2023-05-05T09:16:05.693Z,71.53
2023-05-05T09:18:11.893Z,71.28
2023-05-05T09:20:15.657Z,71.30
2023-05-05T09:22:18.444Z,70.96
2023-05-05T09:24:21.280Z,71.05
2023-05-05T09:26:24.459Z,71.35
2023-05-05T09:28:31.398Z,70.85
2023-05-05T09:30:35.730Z,70.67
2023-05-05T09:32:46.373Z,69.42
2023-05-05T09:34:58.828Z,69.44
2023-05-05T09:37:01.604Z,69.93
2023-05-05T09:39:06.222Z,69.82
2023-05-05T09:41:08.802Z,69.44
2023-05-05T09:43:14.258Z,70.08
2023-05-05T09:45:27.860Z,70.78
2023-05-05T09:47:37.078Z,71.22
2023-05-05T09:49:39.927Z,70.31
2023-05-05T09:51:42.673Z,68.85
2023-05-05T09:53:47.480Z,68.07
2023-05-05T09:55:53.984Z,68.46
2023-05-05T09:57:56.747Z,67.92
2023-05-05T10:00:00.708Z,67.39
2023-05-05T10:02:14.549Z,66.56
2023-05-05T10:04:28.025Z,64.54
2023-05-05T10:06:47.075Z,64.29
2023-05-05T10:09:01.743Z,64.25
2023-05-05T10:11:06.905Z,63.30
2023-05-05T10:13:12.209Z,63.22
2023-05-05T10:15:16.737Z,63.17
2023-05-05T10:17:23.323Z,62.20
2023-05-05T10:19:27.388Z,61.66
2023-05-05T10:21:34.645Z,59.86
2023-05-05T10:23:50.671Z,59.78
2023-05-05T10:26:00.016Z,59.27
2023-05-05T10:28:07.216Z,59.73
2023-05-05T10:30:16.939Z,59.63
2023-05-05T10:32:53.552Z,59.25
2023-05-05T10:34:54.347Z,59.09
2023-05-05T10:37:00.183Z,59.72
2023-05-05T10:39:04.013Z,60.28
2023-05-05T10:41:07.615Z,60.50
2023-05-05T10:43:10.509Z,60.38
2023-05-05T10:45:13.110Z,60.10
2023-05-05T10:47:16.187Z,59.60
2023-05-05T10:49:29.455Z,58.98
2023-05-05T10:51:41.494Z,59.07
2023-05-05T10:53:54.408Z,58.73
2023-05-05T10:56:04.502Z,57.84
2023-05-05T10:58:07.109Z,57.05
2023-05-05T11:00:10.896Z,57.76
2023-05-05T11:02:25.080Z,58.10
2023-05-05T11:04:29.056Z,57.40
2023-05-05T11:06:32.772Z,56.96
2023-05-05T11:08:35.983Z,55.66
2023-05-05T11:10:45.616Z,56.24
2023-05-05T11:13:22.892Z,56.46
2023-05-05T11:15:37.366Z,56.73
2023-05-05T11:17:46.563Z,57.19
2023-05-05T11:19:52.211Z,57.12
2023-05-05T11:22:01.499Z,57.40
2023-05-05T11:24:29.280Z,56.75
2023-05-05T11:26:52.404Z,55.66
2023-05-05T11:28:57.629Z,55.62
2023-05-05T11:31:20.126Z,55.40
2023-05-05T11:33:26.877Z,54.66
2023-05-05T11:35:57.772Z,53.86
2023-05-05T11:38:04.562Z,53.81
2023-05-05T11:40:21.535Z,52.95
2023-05-05T11:42:26.399Z,53.75
2023-05-05T11:44:33.251Z,54.26
2023-05-05T11:46:35.969Z,54.69
2023-05-05T11:48:45.768Z,54.58
2023-05-05T11:50:49.507Z,54.21
2023-05-05T11:52:53.431Z,54.68
2023-05-05T11:55:01.553Z,54.86
2023-05-05T11:57:07.212Z,54.49
2023-05-05T11:59:11.181Z,55.35
2023-05-05T12:01:14.151Z,55.67
2023-05-05T12:03:16.820Z,56.00
2023-05-05T12:05:22.346Z,55.99
2023-05-05T12:07:26.902Z,56.30
2023-05-05T12:09:30.881Z,56.74
2023-05-05T12:11:33.752Z,56.87
2023-05-05T12:13:36.353Z,57.02
2023-05-05T12:15:38.973Z,57.25
2023-05-05T12:17:45.740Z,57.28
2023-05-05T12:19:49.729Z,56.91
2023-05-05T12:21:54.152Z,55.13
2023-05-05T12:23:56.917Z,55.24
2023-05-05T12:26:00.817Z,55.06
2023-05-05T12:28:03.445Z,55.09
2023-05-05T12:30:13.063Z,53.99
2023-05-05T12:32:23.563Z,54.52
2023-05-05T12:34:26.354Z,54.54
2023-05-05T12:36:30.554Z,53.87
2023-05-05T12:38:33.293Z,53.07
2023-05-05T12:40:46.711Z,53.53
2023-05-05T12:42:51.997Z,53.66
2023-05-05T12:44:54.603Z,53.34
2023-05-05T12:46:59.126Z,53.38
2023-05-05T12:49:04.952Z,53.07
2023-05-05T12:51:12.481Z,52.64
2023-05-05T12:53:21.871Z,53.06
2023-05-05T12:55:36.653Z,52.67
2023-05-05T12:57:39.629Z,52.68
2023-05-05T12:59:43.650Z,52.62
2023-05-05T13:01:50.969Z,52.43
2023-05-05T13:04:06.798Z,52.59
2023-05-05T13:06:20.499Z,52.69
2023-05-05T13:08:23.054Z,53.01
2023-05-05T13:10:26.962Z,53.23
2023-05-05T13:12:29.526Z,53.19
2023-05-05T13:14:33.003Z,53.10
2023-05-05T13:16:36.966Z,52.57
2023-05-05T13:18:46.089Z,52.83
2023-05-05T13:20:48.696Z,52.82
2023-05-05T13:22:51.367Z,52.38
2023-05-05T13:24:53.938Z,51.93
2023-05-05T13:26:57.115Z,51.88
2023-05-05T13:28:59.681Z,51.88
2023-05-05T13:31:02.244Z,52.41
2023-05-05T13:33:06.315Z,52.68
2023-05-05T13:35:14.761Z,52.95
2023-05-05T13:37:18.874Z,52.93
2023-05-05T13:39:21.486Z,53.13
2023-05-05T13:41:24.121Z,52.92
2023-05-05T13:43:26.761Z,53.13
2023-05-05T13:45:29.587Z,51.24
2023-05-05T13:47:32.137Z,50.07
2023-05-05T13:49:36.512Z,48.05
2023-05-05T13:51:39.303Z,47.78
2023-05-05T13:53:43.866Z,46.76
2023-05-05T13:55:46.454Z,46.77
2023-05-05T13:57:49.042Z,44.73
2023-05-05T13:59:51.599Z,44.74
2023-05-05T14:01:54.169Z,44.63
2023-05-05T14:03:57.591Z,43.35
2023-05-05T14:06:01.732Z,43.08
2023-05-05T14:08:04.395Z,42.81
2023-05-05T14:10:08.287Z,42.50
2023-05-05T14:12:10.876Z,42.74
2023-05-05T14:14:13.424Z,42.45
2023-05-05T14:16:16.252Z,41.80
2023-05-05T14:18:18.843Z,41.93
2023-05-05T14:20:21.560Z,42.19
2023-05-05T14:22:25.503Z,42.96
2023-05-05T14:24:28.168Z,42.75
2023-05-05T14:26:30.725Z,42.65
2023-05-05T14:28:33.279Z,43.80
2023-05-05T14:30:35.804Z,44.11
2023-05-05T14:32:38.418Z,44.96
2023-05-05T14:34:41.481Z,45.42
2023-05-05T14:36:44.056Z,46.00
2023-05-05T14:38:47.988Z,46.53
2023-05-05T14:40:50.727Z,46.84
2023-05-05T14:42:53.275Z,47.01
2023-05-05T14:44:55.830Z,47.12
2023-05-05T14:46:58.600Z,47.37
2023-05-05T14:49:01.239Z,47.51
2023-05-05T14:51:04.630Z,47.63
2023-05-05T14:53:07.197Z,47.86
2023-05-05T14:55:11.680Z,47.74
2023-05-05T14:57:14.343Z,47.72
2023-05-05T14:59:16.903Z,48.22
2023-05-05T15:01:20.589Z,48.61
2023-05-05T15:03:23.328Z,48.56
2023-05-05T15:05:25.925Z,48.89
2023-05-05T15:07:29.151Z,48.97
2023-05-05T15:09:31.708Z,49.64
2023-05-05T15:11:35.610Z,49.92
2023-05-05T15:13:40.152Z,50.29
2023-05-05T15:15:42.738Z,50.28
2023-05-05T15:17:45.409Z,50.52
2023-05-05T15:19:48.030Z,51.15
2023-05-05T15:21:53.472Z,51.27
2023-05-05T15:23:56.023Z,51.54
2023-05-05T15:25:58.576Z,51.83
2023-05-05T15:28:02.572Z,52.08
2023-05-05T15:30:06.507Z,52.47
2023-05-05T15:32:09.053Z,52.47
2023-05-05T15:34:11.614Z,52.28
2023-05-05T15:36:14.166Z,52.28
2023-05-05T15:38:16.845Z,52.00
2023-05-05T15:40:19.537Z,52.00
2023-05-05T15:42:22.220Z,52.37
2023-05-05T15:44:26.110Z,52.76
2023-05-05T15:46:28.700Z,53.60
2023-05-05T15:48:31.258Z,54.89
2023-05-05T15:50:33.860Z,56.07
2023-05-05T15:52:36.517Z,57.04
2023-05-05T15:54:39.114Z,58.87
2023-05-05T15:56:41.706Z,60.11
2023-05-05T15:58:44.296Z,62.08
2023-05-05T16:00:48.348Z,62.29
2023-05-05T16:02:51.155Z,62.80
2023-05-05T16:04:54.016Z,63.57
2023-05-05T16:06:57.990Z,64.25
2023-05-05T16:09:00.641Z,65.52
2023-05-05T16:11:03.398Z,66.35
2023-05-05T16:13:06.062Z,64.42
2023-05-05T16:15:09.973Z,63.11
2023-05-05T16:17:14.164Z,63.71
2023-05-05T16:19:18.102Z,63.16
2023-05-05T16:21:20.829Z,63.82
2023-05-05T16:23:24.078Z,66.20
2023-05-05T16:25:26.693Z,67.29
2023-05-05T16:27:29.312Z,68.63
2023-05-05T16:29:31.897Z,70.67
2023-05-05T16:31:34.798Z,70.21
2023-05-05T16:33:40.853Z,72.78
2023-05-05T16:35:44.789Z,74.21
2023-05-05T16:37:47.483Z,75.12
2023-05-05T16:39:50.151Z,75.99
2023-05-05T16:41:52.720Z,76.03
2023-05-05T16:43:55.376Z,76.11
2023-05-05T16:45:57.963Z,75.58
2023-05-05T16:48:00.655Z,75.31
2023-05-05T16:50:05.053Z,75.65
2023-05-05T16:52:07.629Z,75.75
2023-05-05T16:54:10.203Z,76.26
2023-05-05T16:56:13.501Z,76.87
2023-05-05T16:58:16.067Z,77.23
2023-05-05T17:00:19.036Z,77.30
2023-05-05T17:02:21.645Z,77.34
2023-05-05T17:04:24.258Z,77.23
2023-05-05T17:06:28.259Z,77.16
2023-05-05T17:08:30.813Z,76.98
2023-05-05T17:10:33.348Z,76.80
2023-05-05T17:12:35.986Z,75.01
2023-05-05T17:14:38.578Z,75.79
2023-05-05T17:16:41.384Z,76.17
2023-05-05T17:18:44.089Z,76.51
2023-05-05T17:20:46.625Z,77.01
2023-05-05T17:22:50.949Z,77.80
2023-05-05T17:24:53.496Z,77.91
2023-05-05T17:26:56.887Z,78.05
2023-05-05T17:28:59.441Z,78.28
2023-05-05T17:31:02.012Z,77.84
2023-05-05T17:33:04.744Z,77.76
2023-05-05T17:35:10.641Z,77.17
2023-05-05T17:37:13.458Z,76.58
2023-05-05T17:39:17.376Z,76.58
2023-05-05T17:41:20.099Z,76.90
2023-05-05T17:43:22.658Z,77.30
2023-05-05T17:45:25.255Z,77.59
2023-05-05T17:47:27.981Z,77.79
2023-05-05T17:49:30.777Z,77.55
2023-05-05T17:51:33.390Z,77.52
2023-05-05T17:53:35.984Z,77.62
2023-05-05T17:55:39.906Z,77.42
2023-05-05T17:57:42.730Z,75.41
2023-05-05T17:59:45.907Z,74.12
2023-05-05T18:01:48.552Z,74.73
2023-05-05T18:03:51.259Z,75.16
2023-05-05T18:05:53.894Z,75.24
2023-05-05T18:07:57.410Z,75.64
2023-05-05T18:10:00.180Z,76.28
2023-05-05T18:12:04.577Z,76.64
2023-05-05T18:14:07.123Z,76.71
2023-05-05T18:16:09.819Z,76.58
2023-05-05T18:18:12.414Z,76.78
2023-05-05T18:20:15.013Z,76.84
2023-05-05T18:22:17.680Z,76.84
2023-05-05T18:24:20.763Z,76.34
2023-05-05T18:26:23.458Z,76.55
2023-05-05T18:28:27.418Z,76.79
2023-05-05T18:30:30.068Z,76.72
2023-05-05T18:32:32.653Z,76.58
2023-05-05T18:34:35.324Z,76.77
2023-05-05T18:36:37.927Z,76.72
2023-05-05T18:38:40.585Z,77.13
2023-05-05T18:40:43.140Z,77.15
2023-05-05T18:42:47.854Z,77.25
2023-05-05T18:44:51.774Z,77.31
2023-05-05T18:46:54.332Z,77.21
2023-05-05T18:48:56.935Z,77.46
2023-05-05T18:51:01.989Z,77.57
2023-05-05T18:53:04.599Z,77.15
2023-05-05T18:55:07.404Z,76.18
2023-05-05T18:57:10.126Z,75.89
2023-05-05T18:59:12.790Z,76.94
2023-05-05T19:01:17.060Z,77.26
2023-05-05T19:03:20.669Z,77.51
2023-05-05T19:05:23.385Z,77.63
2023-05-05T19:07:34.948Z,77.26
2023-05-05T19:09:38.335Z,77.19
2023-05-05T19:11:41.916Z,77.59
2023-05-05T19:13:45.376Z,77.49
2023-05-05T19:15:47.931Z,77.23
2023-05-05T19:17:52.144Z,76.99
2023-05-05T19:19:54.802Z,74.94
2023-05-05T19:21:58.042Z,75.03
2023-05-05T19:24:00.608Z,75.09
2023-05-05T19:26:03.737Z,74.40
2023-05-05T19:28:06.695Z,74.66
2023-05-05T19:30:10.790Z,74.56
2023-05-05T19:32:13.470Z,73.56
2023-05-05T19:34:17.469Z,73.74
2023-05-05T19:36:20.078Z,73.43
2023-05-05T19:38:22.623Z,73.94
2023-05-05T19:40:25.362Z,74.54
2023-05-05T19:42:28.598Z,74.24
2023-05-05T19:44:31.146Z,73.66
2023-05-05T19:46:34.474Z,74.24
2023-05-05T19:48:37.083Z,74.60
2023-05-05T19:50:41.079Z,75.00
2023-05-05T19:52:43.759Z,75.51
2023-05-05T19:54:46.612Z,75.60
2023-05-05T19:56:49.170Z,75.96
2023-05-05T19:58:57.306Z,75.89
2023-05-05T20:00:59.925Z,75.38
2023-05-05T20:03:02.618Z,75.39
2023-05-05T20:05:05.798Z,75.39
2023-05-05T20:07:09.789Z,75.95
2023-05-05T20:09:12.408Z,75.42
2023-05-05T20:11:16.190Z,76.12
2023-05-05T20:13:18.759Z,76.65
2023-05-05T20:15:22.208Z,77.30
2023-05-05T20:17:25.702Z,77.46
2023-05-05T20:19:28.261Z,77.76
2023-05-05T20:21:31.023Z,77.83
2023-05-05T20:23:34.965Z,78.35
2023-05-05T20:25:37.593Z,78.76
2023-05-05T20:27:40.194Z,78.74
2023-05-05T20:29:42.874Z,78.99
2023-05-05T20:31:45.502Z,79.02
2023-05-05T20:33:48.127Z,79.09
2023-05-05T20:35:50.694Z,78.99
2023-05-05T20:37:53.229Z,79.25
2023-05-05T20:39:58.221Z,77.89
2023-05-05T20:42:01.185Z,77.55
2023-05-05T20:44:03.780Z,77.21
2023-05-05T20:46:07.122Z,77.61
2023-05-05T20:48:11.323Z,78.59
2023-05-05T20:50:14.487Z,79.66
2023-05-05T20:52:17.058Z,79.81
2023-05-05T20:54:19.764Z,80.25
2023-05-05T20:56:23.856Z,80.64
2023-05-05T20:58:26.527Z,80.68
2023-05-05T21:00:29.119Z,77.90
2023-05-05T21:02:32.466Z,78.33
2023-05-05T21:04:35.092Z,78.98
2023-05-05T21:08:40.885Z,79.22
2023-05-05T21:10:46.390Z,79.35
2023-05-05T21:12:50.337Z,79.26
2023-05-05T21:14:53.446Z,79.22
2023-05-05T21:16:58.544Z,79.21
2023-05-05T21:19:01.110Z,79.25
2023-05-05T21:21:03.688Z,79.08
2023-05-05T21:23:06.283Z,79.31
2023-05-05T21:25:14.178Z,79.38
2023-05-05T21:27:17.213Z,79.31
2023-05-05T21:29:21.285Z,79.17
2023-05-05T21:31:23.841Z,78.91
2023-05-05T21:33:27.282Z,78.52
2023-05-05T21:35:29.827Z,78.22
2023-05-05T21:37:32.460Z,78.54
2023-05-05T21:39:35.374Z,78.84
2023-05-05T21:41:37.926Z,78.94
2023-05-05T21:43:40.508Z,79.07
2023-05-05T21:45:44.385Z,79.26
2023-05-05T21:47:47.003Z,79.08
2023-05-05T21:49:49.597Z,78.91
2023-05-05T21:51:52.205Z,78.88
2023-05-05T21:53:54.796Z,79.08
2023-05-05T21:55:57.381Z,78.71
2023-05-05T21:57:59.923Z,78.61
2023-05-05T22:00:02.731Z,77.67
2023-05-05T22:02:06.698Z,77.56
2023-05-05T22:04:09.314Z,77.56
2023-05-05T22:06:12.354Z,78.15
2023-05-05T22:08:15.000Z,78.15
2023-05-05T22:10:17.662Z,77.97
2023-05-05T22:12:20.212Z,78.31
2023-05-05T22:14:22.770Z,78.59
2023-05-05T22:16:25.402Z,78.79
2023-05-05T22:18:29.434Z,79.08
2023-05-05T22:20:32.161Z,79.26
2023-05-05T22:22:34.795Z,79.52
2023-05-05T22:24:37.333Z,79.58
2023-05-05T22:26:43.154Z,79.38
2023-05-05T22:28:46.173Z,79.46
2023-05-05T22:30:48.856Z,79.32
2023-05-05T22:32:51.481Z,79.48
2023-05-05T22:34:55.469Z,79.66
2023-05-05T22:36:58.793Z,79.31
2023-05-05T22:39:01.373Z,79.09
2023-05-05T22:41:03.955Z,78.89
2023-05-05T22:43:06.535Z,79.06
2023-05-05T22:45:10.376Z,78.88
2023-05-05T22:47:13.229Z,79.09
2023-05-05T22:49:15.922Z,79.31
2023-05-05T22:51:19.865Z,79.55
2023-05-05T22:53:22.408Z,79.34
2023-05-05T22:55:24.991Z,79.49
2023-05-05T22:57:27.616Z,79.60
2023-05-05T22:59:30.226Z,79.34
2023-05-05T23:01:34.121Z,79.52
2023-05-05T23:03:36.744Z,79.18
2023-05-05T23:05:39.327Z,79.36
2023-05-05T23:07:43.239Z,79.42
2023-05-05T23:09:46.714Z,79.26
2023-05-05T23:11:49.307Z,79.23
2023-05-05T23:13:51.871Z,79.21
2023-05-05T23:15:54.424Z,79.08
2023-05-05T23:17:57.029Z,79.39
2023-05-05T23:19:59.671Z,79.76
2023-05-05T23:22:02.756Z,80.15
2023-05-05T23:24:07.316Z,79.89
2023-05-05T23:26:09.878Z,79.83
2023-05-05T23:28:12.454Z,79.79
2023-05-05T23:30:15.431Z,79.85
2023-05-05T23:32:17.999Z,79.76
2023-05-05T23:34:20.685Z,79.33
2023-05-05T23:36:23.234Z,79.08
2023-05-05T23:38:26.032Z,79.09
2023-05-05T23:40:29.988Z,79.19
2023-05-05T23:42:32.586Z,79.06
2023-05-05T23:44:35.162Z,79.40
2023-05-05T23:46:37.774Z,79.97
2023-05-05T23:48:40.365Z,79.91
2023-05-05T23:50:43.259Z,80.24
2023-05-05T23:52:46.111Z,80.23
2023-05-05T23:54:48.684Z,80.34
2023-05-05T23:56:52.597Z,80.50
2023-05-05T23:58:55.213Z,80.78
